createdAt,value
2023-12-29T00:00:14.663Z,100409.16
2023-12-29T00:02:41.221Z,100390.13
2023-12-29T00:05:08.342Z,100395.66
2023-12-29T00:07:35.212Z,100383.69
2023-12-29T00:10:01.853Z,100387.88
2023-12-29T00:12:28.523Z,100390.44
2023-12-29T00:14:55.139Z,100389.06
2023-12-29T00:17:21.653Z,100405.63
2023-12-29T00:19:48.645Z,100389.78
2023-12-29T00:22:15.412Z,100389.44
2023-12-29T00:24:42.059Z,100386.22
2023-12-29T00:27:08.611Z,100387.94
2023-12-29T00:29:35.718Z,100390.97
2023-12-29T00:32:04.036Z,100371.22
2023-12-29T00:34:31.372Z,100349.28
2023-12-29T00:36:57.950Z,100371.38
2023-12-29T00:39:29.916Z,100375.13
2023-12-29T00:41:57.680Z,100374.28
2023-12-29T00:44:24.892Z,100372.22
2023-12-29T00:46:51.582Z,100369.38
2023-12-29T00:49:18.181Z,100347.78
2023-12-29T00:51:44.974Z,100368.03
2023-12-29T00:54:11.676Z,100350.66
2023-12-29T00:56:38.297Z,100340.50
2023-12-29T00:59:05.345Z,100343.91
2023-12-29T01:01:36.485Z,100363.78
2023-12-29T01:04:03.984Z,100354.34
2023-12-29T01:06:30.733Z,100348.28
2023-12-29T01:08:57.422Z,100342.53
2023-12-29T01:11:24.145Z,100364.47
2023-12-29T01:13:50.717Z,100336.81
2023-12-29T01:16:17.323Z,100336.81
2023-12-29T01:18:44.003Z,100323.63
2023-12-29T01:21:10.654Z,100345.88
2023-12-29T01:23:37.232Z,100345.22
2023-12-29T01:26:03.819Z,100349.97
2023-12-29T01:28:30.476Z,100343.19
2023-12-29T01:30:57.146Z,100342.53
2023-12-29T01:33:23.842Z,100350.47
2023-12-29T01:35:50.474Z,100383.00
2023-12-29T01:38:16.946Z,100339.53
2023-12-29T01:40:47.219Z,100339.69
2023-12-29T01:43:14.339Z,100331.91
2023-12-29T01:45:49.046Z,100336.28
2023-12-29T01:48:24.486Z,100328.03
2023-12-29T01:50:51.960Z,100340.88
2023-12-29T01:53:20.699Z,100338.53
2023-12-29T01:55:50.126Z,100328.19
2023-12-29T01:58:17.142Z,100341.69
2023-12-29T02:00:44.435Z,100332.75
2023-12-29T02:03:11.096Z,100352.47
2023-12-29T02:05:39.169Z,100353.66
2023-12-29T02:08:09.055Z,100363.13
2023-12-29T02:10:37.182Z,100355.69
2023-12-29T02:13:04.012Z,100384.88
2023-12-29T02:15:30.738Z,100371.09
2023-12-29T02:18:04.424Z,100354.38
2023-12-29T02:20:31.516Z,100349.50
2023-12-29T02:22:58.045Z,100355.56
2023-12-29T02:25:24.716Z,100352.69
2023-12-29T02:27:58.525Z,100369.25
2023-12-29T02:30:44.210Z,100353.72
2023-12-29T02:33:14.012Z,100358.09
2023-12-29T02:35:44.516Z,100359.13
2023-12-29T02:38:12.254Z,100364.34
2023-12-29T02:40:39.313Z,100354.56
2023-12-29T02:43:05.945Z,100343.09
2023-12-29T02:45:32.568Z,100351.03
2023-12-29T02:47:59.776Z,100342.59
2023-12-29T02:50:26.650Z,100347.16
2023-12-29T02:52:53.398Z,100346.13
2023-12-29T02:55:20.016Z,100348.47
2023-12-29T02:57:46.782Z,100349.84
2023-12-29T03:00:13.832Z,100349.31
2023-12-29T03:02:40.374Z,100347.63
2023-12-29T03:05:07.445Z,100337.22
2023-12-29T03:07:34.052Z,100337.69
2023-12-29T03:10:00.677Z,100332.47
2023-12-29T03:12:27.294Z,100317.47
2023-12-29T03:14:53.822Z,100330.22
2023-12-29T03:17:20.761Z,100327.88
2023-12-29T03:19:47.442Z,100325.19
2023-12-29T03:22:14.092Z,100320.47
2023-12-29T03:24:42.537Z,100328.56
2023-12-29T03:27:09.832Z,100336.81
2023-12-29T03:29:36.623Z,100328.91
2023-12-29T03:32:03.772Z,100329.75
2023-12-29T03:34:30.463Z,100331.28
2023-12-29T03:36:57.046Z,100310.03
2023-12-29T03:39:24.682Z,100299.56
2023-12-29T03:41:51.236Z,100327.19
2023-12-29T03:44:18.435Z,100315.75
2023-12-29T03:46:45.508Z,100319.78
2023-12-29T03:49:12.183Z,100322.16
2023-12-29T03:51:38.876Z,100324.38
2023-12-29T03:54:05.790Z,100337.53
2023-12-29T03:56:32.334Z,100327.88
2023-12-29T03:58:59.688Z,100317.28
2023-12-29T04:01:26.788Z,100306.97
2023-12-29T04:03:54.646Z,100329.38
2023-12-29T04:06:21.167Z,100315.09
2023-12-29T04:08:47.773Z,100313.88
2023-12-29T04:11:14.464Z,100315.75
2023-12-29T04:13:41.042Z,100323.50
2023-12-29T04:16:07.626Z,100316.59
2023-12-29T04:18:34.356Z,100314.75
2023-12-29T04:21:00.972Z,100313.06
2023-12-29T04:23:27.544Z,100306.81
2023-12-29T04:25:54.069Z,100314.91
2023-12-29T04:28:20.623Z,100315.94
2023-12-29T04:30:47.241Z,100333.31
2023-12-29T04:33:13.795Z,100316.41
2023-12-29T04:35:40.443Z,100315.56
2023-12-29T04:38:07.667Z,100313.91
2023-12-29T04:40:34.227Z,100313.72
2023-12-29T04:43:00.746Z,100333.28
2023-12-29T04:45:27.497Z,100331.28
2023-12-29T04:47:53.993Z,100335.16
2023-12-29T04:50:20.642Z,100326.22
2023-12-29T04:52:47.148Z,100340.56
2023-12-29T04:55:14.272Z,100320.81
2023-12-29T04:57:41.227Z,100336.34
2023-12-29T05:00:08.440Z,100337.16
2023-12-29T05:02:35.298Z,100335.66
2023-12-29T05:05:01.906Z,100329.44
2023-12-29T05:07:28.505Z,100330.94
2023-12-29T05:09:55.071Z,100338.88
2023-12-29T05:12:21.625Z,100333.66
2023-12-29T05:14:48.123Z,100326.38
2023-12-29T05:17:14.675Z,100324.88
2023-12-29T05:19:41.253Z,100327.06
2023-12-29T05:22:07.820Z,100329.78
2023-12-29T05:24:34.537Z,100322.88
2023-12-29T05:27:01.069Z,100334.00
2023-12-29T05:29:27.620Z,100324.38
2023-12-29T05:31:54.268Z,100336.84
2023-12-29T05:34:21.067Z,100331.97
2023-12-29T05:36:50.657Z,100342.09
2023-12-29T05:39:17.646Z,100349.00
2023-12-29T05:41:44.168Z,100330.28
2023-12-29T05:44:10.839Z,100317.16
2023-12-29T05:46:37.535Z,100323.19
2023-12-29T05:49:04.274Z,100336.34
2023-12-29T05:51:30.893Z,100316.81
2023-12-29T05:53:57.510Z,100333.31
2023-12-29T05:56:26.106Z,100338.72
2023-12-29T05:58:53.143Z,100324.56
2023-12-29T06:01:19.796Z,100316.16
2023-12-29T06:03:46.407Z,100330.63
2023-12-29T06:06:13.061Z,100332.81
2023-12-29T06:08:39.607Z,100318.16
2023-12-29T06:11:06.164Z,100314.59
2023-12-29T06:13:32.939Z,100326.94
2023-12-29T06:15:59.501Z,100321.03
2023-12-29T06:18:26.316Z,100320.19
2023-12-29T06:20:52.891Z,100322.03
2023-12-29T06:23:19.567Z,100325.25
2023-12-29T06:25:46.069Z,100317.47
2023-12-29T06:28:12.685Z,100321.53
2023-12-29T06:30:39.323Z,100327.09
2023-12-29T06:33:06.224Z,100309.91
2023-12-29T06:35:32.882Z,100322.38
2023-12-29T06:37:59.565Z,100320.00
2023-12-29T06:40:26.460Z,100328.09
2023-12-29T06:42:53.042Z,100329.78
2023-12-29T06:45:19.626Z,100325.38
2023-12-29T06:47:46.197Z,100339.06
2023-12-29T06:50:14.084Z,100333.34
2023-12-29T06:52:46.223Z,100352.03
2023-12-29T06:55:13.156Z,100369.03
2023-12-29T06:57:39.818Z,100360.28
2023-12-29T07:00:07.165Z,100353.69
2023-12-29T07:02:34.173Z,100354.00
2023-12-29T07:05:00.904Z,100352.16
2023-12-29T07:07:27.649Z,100355.88
2023-12-29T07:09:54.247Z,100355.53
2023-12-29T07:12:21.185Z,100355.19
2023-12-29T07:14:47.861Z,100358.88
2023-12-29T07:17:14.552Z,100345.06
2023-12-29T07:19:41.158Z,100363.38
2023-12-29T07:22:08.995Z,100353.31
2023-12-29T07:24:37.113Z,100368.63
2023-12-29T07:27:04.614Z,100374.88
2023-12-29T07:29:32.607Z,100368.97
2023-12-29T07:32:00.426Z,100374.66
2023-12-29T07:34:27.246Z,100357.66
2023-12-29T07:36:54.647Z,100366.41
2023-12-29T07:39:21.285Z,100375.50
2023-12-29T07:41:49.842Z,100376.16
2023-12-29T07:44:16.563Z,100373.78
2023-12-29T07:46:45.136Z,100381.50
2023-12-29T07:49:12.151Z,100385.41
2023-12-29T07:51:43.649Z,100380.34
2023-12-29T07:54:10.483Z,100381.56
2023-12-29T07:56:38.629Z,100378.34
2023-12-29T07:59:05.911Z,100378.72
2023-12-29T08:01:32.644Z,100372.81
2023-12-29T08:03:59.709Z,100371.13
2023-12-29T08:06:26.706Z,100387.63
2023-12-29T08:08:53.225Z,100396.91
2023-12-29T08:11:19.855Z,100383.09
2023-12-29T08:13:48.866Z,100388.34
2023-12-29T08:16:18.604Z,100369.63
2023-12-29T08:18:45.387Z,100373.69
2023-12-29T08:21:19.292Z,100386.16
2023-12-29T08:23:49.821Z,100386.84
2023-12-29T08:26:16.688Z,100377.09
2023-12-29T08:28:43.353Z,100373.22
2023-12-29T08:31:10.610Z,100378.75
2023-12-29T08:33:37.366Z,100388.34
2023-12-29T08:36:04.927Z,100381.66
2023-12-29T08:38:32.732Z,100390.06
2023-12-29T08:41:00.764Z,100385.34
2023-12-29T08:43:27.667Z,100387.72
2023-12-29T08:45:55.644Z,100370.56
2023-12-29T08:48:22.670Z,100367.69
2023-12-29T08:50:50.456Z,100366.16
2023-12-29T08:53:17.934Z,100366.00
2023-12-29T08:55:44.463Z,100359.59
2023-12-29T08:58:11.146Z,100359.59
2023-12-29T09:00:37.936Z,100388.25
2023-12-29T09:03:04.847Z,100380.97
2023-12-29T09:05:31.351Z,100389.91
2023-12-29T09:07:58.106Z,100379.47
2023-12-29T09:10:25.022Z,100384.53
2023-12-29T09:12:51.677Z,100378.16
2023-12-29T09:15:18.217Z,100385.06
2023-12-29T09:17:45.084Z,100393.47
2023-12-29T09:20:12.595Z,100395.84
2023-12-29T09:22:39.423Z,100394.00
2023-12-29T09:25:06.333Z,100388.44
2023-12-29T09:27:32.965Z,100391.13
2023-12-29T09:29:59.737Z,100395.16
2023-12-29T09:32:26.715Z,100397.06
2023-12-29T09:34:53.337Z,100397.88
2023-12-29T09:37:19.911Z,100399.03
2023-12-29T09:39:46.543Z,100400.41
2023-12-29T09:42:22.849Z,100397.53
2023-12-29T09:44:53.286Z,100382.38
2023-12-29T09:47:24.645Z,100394.31
2023-12-29T09:49:53.470Z,100395.50
2023-12-29T09:52:21.706Z,100392.66
2023-12-29T09:54:52.550Z,100394.19
2023-12-29T09:57:19.989Z,100393.16
2023-12-29T09:59:49.433Z,100399.06
2023-12-29T10:02:19.487Z,100394.19
2023-12-29T10:04:46.148Z,100406.50
2023-12-29T10:07:22.240Z,100412.69
2023-12-29T10:09:52.564Z,100410.00
2023-12-29T10:12:20.757Z,100405.13
2023-12-29T10:14:58.180Z,100408.50
2023-12-29T10:17:45.732Z,100395.00
2023-12-29T10:21:00.761Z,100414.06
2023-12-29T10:23:35.965Z,100407.50
2023-12-29T10:26:03.892Z,100409.84
2023-12-29T10:28:30.529Z,100407.63
2023-12-29T10:30:57.277Z,100404.94
2023-12-29T10:33:25.921Z,100400.59
2023-12-29T10:36:08.305Z,100391.94
2023-12-29T10:38:35.241Z,100390.94
2023-12-29T10:41:13.126Z,100397.34
2023-12-29T10:43:39.762Z,100401.91
2023-12-29T10:46:10.578Z,100412.91
2023-12-29T10:48:37.944Z,100409.50
2023-12-29T10:51:05.561Z,100402.25
2023-12-29T10:53:40.304Z,100412.19
2023-12-29T10:56:21.995Z,100410.19
2023-12-29T10:59:01.459Z,100397.66
2023-12-29T11:01:28.329Z,100409.31
2023-12-29T11:04:04.195Z,100410.63
2023-12-29T11:06:41.347Z,100408.03
2023-12-29T11:09:08.076Z,100400.44
2023-12-29T11:11:37.325Z,100403.03
2023-12-29T11:14:04.885Z,100406.94
2023-12-29T11:16:32.885Z,100401.59
2023-12-29T11:19:00.206Z,100416.09
2023-12-29T11:21:29.057Z,100406.97
2023-12-29T11:23:55.743Z,100402.72
2023-12-29T11:26:22.470Z,100406.94
2023-12-29T11:28:51.797Z,100403.34
2023-12-29T11:31:19.334Z,100406.41
2023-12-29T11:33:53.907Z,100399.41
2023-12-29T11:36:33.164Z,100403.13
2023-12-29T11:39:21.054Z,100400.63
2023-12-29T11:42:20.702Z,100383.31
2023-12-29T11:44:49.333Z,100393.78
2023-12-29T11:47:38.709Z,100421.34
2023-12-29T11:50:06.624Z,100392.88
2023-12-29T11:52:37.835Z,100411.38
2023-12-29T11:55:11.474Z,100402.19
2023-12-29T11:57:39.608Z,100406.09
2023-12-29T12:00:07.221Z,100414.91
2023-12-29T12:02:34.652Z,100397.47
2023-12-29T12:05:01.274Z,100391.75
2023-12-29T12:07:28.667Z,100395.31
2023-12-29T12:10:23.769Z,100397.47
2023-12-29T12:12:52.745Z,100399.31
2023-12-29T12:15:29.576Z,100393.25
2023-12-29T12:18:01.279Z,100393.41
2023-12-29T12:20:30.929Z,100390.84
2023-12-29T12:23:11.509Z,100387.59
2023-12-29T12:25:40.848Z,100392.91
2023-12-29T12:28:08.681Z,100385.28
2023-12-29T12:30:36.049Z,100392.66
2023-12-29T12:33:04.995Z,100383.91
2023-12-29T12:35:32.032Z,100378.00
2023-12-29T12:38:25.728Z,100376.78
2023-12-29T12:40:52.612Z,100381.13
2023-12-29T12:43:19.485Z,100377.72
2023-12-29T12:45:56.319Z,100376.53
2023-12-29T12:48:50.884Z,100374.25
2023-12-29T12:51:20.733Z,100370.03
2023-12-29T12:53:48.755Z,100364.63
2023-12-29T12:56:16.462Z,100367.94
2023-12-29T12:58:43.972Z,100376.09
2023-12-29T13:01:11.125Z,100378.59
2023-12-29T13:03:40.089Z,100380.00
2023-12-29T13:06:08.498Z,100371.56
2023-12-29T13:08:40.581Z,100379.84
2023-12-29T13:11:10.383Z,100368.69
2023-12-29T13:13:43.989Z,100361.66
2023-12-29T13:16:11.410Z,100366.00
2023-12-29T13:18:38.382Z,100362.59
2023-12-29T13:21:05.745Z,100368.38
2023-12-29T13:23:32.839Z,100369.88
2023-12-29T13:26:03.465Z,100367.38
2023-12-29T13:28:31.918Z,100371.50
2023-12-29T13:30:59.319Z,100373.16
2023-12-29T13:33:43.704Z,100383.97
2023-12-29T13:36:34.486Z,100378.56
2023-12-29T13:39:09.593Z,100375.19
2023-12-29T13:41:37.820Z,100371.31
2023-12-29T13:44:04.975Z,100369.63
2023-12-29T13:46:32.278Z,100360.31
2023-12-29T13:48:59.881Z,100358.16
2023-12-29T13:51:27.358Z,100360.84
2023-12-29T13:54:04.462Z,100343.47
2023-12-29T13:56:31.216Z,100351.59
2023-12-29T13:58:57.934Z,100345.53
2023-12-29T14:01:24.781Z,100349.06
2023-12-29T14:03:56.939Z,100342.47
2023-12-29T14:06:32.665Z,100331.03
2023-12-29T14:08:59.534Z,100330.19
2023-12-29T14:11:26.261Z,100341.00
2023-12-29T14:13:53.108Z,100346.75
2023-12-29T14:16:22.166Z,100343.69
2023-12-29T14:18:55.831Z,100344.22
2023-12-29T14:21:29.435Z,100346.91
2023-12-29T14:24:03.728Z,100346.59
2023-12-29T14:26:31.215Z,100346.59
2023-12-29T14:29:05.638Z,100348.25
2023-12-29T14:31:38.018Z,100339.69
2023-12-29T14:34:08.623Z,100344.56
2023-12-29T14:36:36.939Z,100343.56
2023-12-29T14:39:04.333Z,100352.16
2023-12-29T14:41:31.695Z,100361.63
2023-12-29T14:43:58.840Z,100376.31
2023-12-29T14:46:25.564Z,100379.66
2023-12-29T14:48:57.217Z,100374.78
2023-12-29T14:51:24.251Z,100378.31
2023-12-29T14:53:51.090Z,100367.88
2023-12-29T14:56:18.543Z,100353.53
2023-12-29T14:58:45.184Z,100349.50
2023-12-29T15:01:11.777Z,100360.78
2023-12-29T15:03:39.421Z,100364.84
2023-12-29T15:06:08.073Z,100357.09
2023-12-29T15:08:36.045Z,100360.13
2023-12-29T15:11:07.300Z,100353.22
2023-12-29T15:13:34.153Z,100359.78
2023-12-29T15:16:02.055Z,100349.31
2023-12-29T15:18:32.462Z,100349.50
2023-12-29T15:21:00.598Z,100343.78
2023-12-29T15:23:34.362Z,100349.50
2023-12-29T15:26:01.251Z,100339.38
2023-12-29T15:28:28.472Z,100345.13
2023-12-29T15:30:55.402Z,100336.88
2023-12-29T15:33:22.894Z,100332.66
2023-12-29T15:35:50.833Z,100333.66
2023-12-29T15:38:18.028Z,100339.56
2023-12-29T15:40:45.007Z,100333.16
2023-12-29T15:43:11.919Z,100333.00
2023-12-29T15:45:38.838Z,100331.63
2023-12-29T15:48:06.577Z,100325.25
2023-12-29T15:50:33.677Z,100321.38
2023-12-29T15:53:00.621Z,100312.94
2023-12-29T15:55:27.618Z,100312.44
2023-12-29T15:57:54.684Z,100326.25
2023-12-29T16:00:22.212Z,100314.78
2023-12-29T16:02:49.155Z,100300.13
2023-12-29T16:05:18.488Z,100296.91
2023-12-29T16:07:45.280Z,100291.53
2023-12-29T16:10:12.055Z,100284.47
2023-12-29T16:12:39.069Z,100294.91
2023-12-29T16:15:09.464Z,100274.19
2023-12-29T16:17:38.870Z,100274.34
2023-12-29T16:20:06.279Z,100265.94
2023-12-29T16:22:35.016Z,100265.59
2023-12-29T16:25:01.783Z,100260.88
2023-12-29T16:27:28.775Z,100261.91
2023-12-29T16:29:55.413Z,100260.34
2023-12-29T16:32:28.282Z,100247.91
2023-12-29T16:34:55.179Z,100248.41
2023-12-29T16:37:22.024Z,100272.69
2023-12-29T16:39:48.956Z,100269.47
2023-12-29T16:42:18.482Z,100290.38
2023-12-29T16:44:45.128Z,100295.56
2023-12-29T16:47:12.976Z,100291.69
2023-12-29T16:49:41.802Z,100302.47
2023-12-29T16:52:09.146Z,100304.00
2023-12-29T16:54:39.359Z,100313.75
2023-12-29T16:57:07.284Z,100316.13
2023-12-29T16:59:34.080Z,100299.09
2023-12-29T17:02:03.419Z,100316.78
2023-12-29T17:04:31.478Z,100314.78
2023-12-29T17:06:58.719Z,100305.00
2023-12-29T17:09:25.928Z,100318.94
2023-12-29T17:11:52.967Z,100307.84
2023-12-29T17:14:19.793Z,100309.16
2023-12-29T17:16:46.920Z,100299.59
2023-12-29T17:19:13.930Z,100304.47
2023-12-29T17:21:40.743Z,100310.53
2023-12-29T17:24:07.330Z,100302.59
2023-12-29T17:26:34.174Z,100305.66
2023-12-29T17:29:01.456Z,100310.53
2023-12-29T17:31:28.097Z,100324.34
2023-12-29T17:33:55.495Z,100324.03
2023-12-29T17:36:22.349Z,100333.25
2023-12-29T17:38:49.104Z,100330.91
2023-12-29T17:41:17.377Z,100329.19
2023-12-29T17:43:44.450Z,100347.28
2023-12-29T17:46:13.218Z,100349.13
2023-12-29T17:48:40.334Z,100351.03
2023-12-29T17:51:13.001Z,100350.31
2023-12-29T17:53:40.699Z,100363.72
2023-12-29T17:56:11.997Z,100364.34
2023-12-29T17:58:39.699Z,100370.41
2023-12-29T18:01:06.450Z,100363.66
2023-12-29T18:03:33.226Z,100348.31
2023-12-29T18:06:04.406Z,100357.69
2023-12-29T18:08:32.177Z,100365.06
2023-12-29T18:10:59.203Z,100366.78
2023-12-29T18:13:25.911Z,100370.22
2023-12-29T18:15:52.839Z,100374.09
2023-12-29T18:18:19.940Z,100377.13
2023-12-29T18:20:50.246Z,100399.81
2023-12-29T18:23:17.206Z,100408.13
2023-12-29T18:25:44.023Z,100418.22
2023-12-29T18:28:10.968Z,100422.94
2023-12-29T18:30:37.782Z,100421.41
2023-12-29T18:33:05.195Z,100423.16
2023-12-29T18:35:32.069Z,100415.81
2023-12-29T18:37:59.771Z,100426.66
2023-12-29T18:40:28.253Z,100431.66
2023-12-29T18:42:55.295Z,100425.19
2023-12-29T18:45:22.543Z,100434.72
2023-12-29T18:47:50.354Z,100440.47
2023-12-29T18:50:18.059Z,100444.03
2023-12-29T18:52:46.845Z,100440.69
2023-12-29T18:55:13.568Z,100431.88
2023-12-29T18:57:40.204Z,100432.97
2023-12-29T19:00:07.470Z,100434.13
2023-12-29T19:02:35.092Z,100427.25
2023-12-29T19:05:04.783Z,100428.03
2023-12-29T19:07:32.487Z,100432.63
2023-12-29T19:09:59.091Z,100427.56
2023-12-29T19:12:25.948Z,100421.00
2023-12-29T19:14:54.146Z,100426.38
2023-12-29T19:17:22.563Z,100431.25
2023-12-29T19:19:51.515Z,100434.66
2023-12-29T19:22:18.289Z,100444.13
2023-12-29T19:24:47.684Z,100434.84
2023-12-29T19:27:14.594Z,100451.41
2023-12-29T19:29:43.611Z,100452.16
2023-12-29T19:32:10.587Z,100465.75
2023-12-29T19:34:37.403Z,100469.00
2023-12-29T19:37:04.849Z,100476.59
2023-12-29T19:39:31.490Z,100478.63
2023-12-29T19:41:58.143Z,100474.66
2023-12-29T19:44:24.721Z,100463.16
2023-12-29T19:46:51.489Z,100453.44
2023-12-29T19:49:18.319Z,100451.63
2023-12-29T19:51:45.083Z,100454.69
2023-12-29T19:54:12.325Z,100450.69
2023-12-29T19:56:39.968Z,100430.63
2023-12-29T19:59:06.527Z,100441.84
2023-12-29T20:01:40.989Z,100430.94
2023-12-29T20:04:12.045Z,100433.00
2023-12-29T20:06:38.757Z,100434.34
2023-12-29T20:09:06.698Z,100437.84
2023-12-29T20:11:33.547Z,100441.75
2023-12-29T20:14:00.597Z,100444.69
2023-12-29T20:16:27.595Z,100445.28
2023-12-29T20:18:56.093Z,100443.47
2023-12-29T20:21:24.222Z,100448.97
2023-12-29T20:23:54.319Z,100462.69
2023-12-29T20:26:28.602Z,100455.78
2023-12-29T20:28:56.270Z,100461.22
2023-12-29T20:31:27.859Z,100481.91
2023-12-29T20:33:55.649Z,100476.28
2023-12-29T20:36:25.765Z,100462.00
2023-12-29T20:38:56.785Z,100468.31
2023-12-29T20:41:24.451Z,100460.63
2023-12-29T20:43:57.808Z,100455.38
2023-12-29T20:46:24.728Z,100467.06
2023-12-29T20:48:52.707Z,100472.66
2023-12-29T20:51:20.554Z,100473.59
2023-12-29T20:53:48.916Z,100462.63
2023-12-29T20:56:16.351Z,100461.81
2023-12-29T20:58:46.110Z,100464.00
2023-12-29T21:01:13.149Z,100452.69
2023-12-29T21:03:42.117Z,100451.72
2023-12-29T21:06:09.585Z,100448.53
2023-12-29T21:08:36.462Z,100442.56
2023-12-29T21:11:03.160Z,100464.16
2023-12-29T21:13:31.659Z,100517.72
2023-12-29T21:15:58.594Z,100527.91
2023-12-29T21:18:30.607Z,100512.78
2023-12-29T21:20:57.696Z,100511.31
2023-12-29T21:23:24.277Z,100505.47
2023-12-29T21:25:51.147Z,100489.34
2023-12-29T21:28:18.621Z,100504.16
2023-12-29T21:30:46.892Z,100495.00
2023-12-29T21:33:14.348Z,100474.25
2023-12-29T21:35:41.544Z,100485.50
2023-12-29T21:38:10.990Z,100481.88
2023-12-29T21:40:37.925Z,100489.34
2023-12-29T21:43:04.981Z,100479.06
2023-12-29T21:45:35.543Z,100484.56
2023-12-29T21:48:03.059Z,100499.16
2023-12-29T21:50:30.331Z,100473.13
2023-12-29T21:53:00.680Z,100505.38
2023-12-29T21:55:33.683Z,100502.69
2023-12-29T21:58:06.522Z,100497.00
2023-12-29T22:00:33.480Z,100494.94
2023-12-29T22:03:00.666Z,100528.78
2023-12-29T22:05:33.248Z,100514.72
2023-12-29T22:08:00.645Z,100517.69
2023-12-29T22:10:29.045Z,100508.50
2023-12-29T22:12:57.209Z,100503.81
2023-12-29T22:15:26.635Z,100506.31
2023-12-29T22:17:53.860Z,100521.53
2023-12-29T22:20:21.778Z,100529.56
2023-12-29T22:22:54.167Z,100524.94
2023-12-29T22:25:21.032Z,100525.56
2023-12-29T22:27:48.560Z,100517.75
2023-12-29T22:30:16.094Z,100521.13
2023-12-29T22:32:42.847Z,100526.50
2023-12-29T22:35:10.167Z,100546.16
2023-12-29T22:37:37.555Z,100546.38
2023-12-29T22:40:05.245Z,100560.00
2023-12-29T22:42:36.505Z,100556.84
2023-12-29T22:45:09.657Z,100560.50
2023-12-29T22:47:36.678Z,100565.69
2023-12-29T22:50:04.037Z,100565.06
2023-12-29T22:52:34.095Z,100574.69
2023-12-29T22:55:01.688Z,100566.31
2023-12-29T22:57:28.677Z,100562.38
2023-12-29T22:59:56.502Z,100561.28
2023-12-29T23:02:23.437Z,100556.91
2023-12-29T23:04:51.116Z,100554.09
2023-12-29T23:07:18.237Z,100557.34
2023-12-29T23:09:45.397Z,100564.84
2023-12-29T23:12:12.072Z,100559.53
2023-12-29T23:14:39.168Z,100568.41
2023-12-29T23:17:09.940Z,100573.19
2023-12-29T23:19:37.588Z,100573.38
2023-12-29T23:22:04.453Z,100589.94
2023-12-29T23:24:31.152Z,100587.69
2023-12-29T23:26:58.098Z,100598.44
2023-12-29T23:29:25.185Z,100597.72
2023-12-29T23:31:52.513Z,100597.72
2023-12-29T23:34:20.071Z,100599.56
2023-12-29T23:36:46.945Z,100602.28
2023-12-29T23:39:13.935Z,100602.28
2023-12-29T23:41:40.641Z,100601.13
2023-12-29T23:44:09.659Z,100599.34
2023-12-29T23:46:37.217Z,100601.41
2023-12-29T23:49:04.021Z,100603.97
2023-12-29T23:51:30.626Z,100616.41
2023-12-29T23:53:57.576Z,100610.63
2023-12-29T23:56:24.486Z,100614.19
2023-12-29T23:58:52.994Z,100615.44
